»·PEaware :: UAL1613 KSAN-KPHX

UAL1613 :: KSAN-KPHX

FLIGHT INFORMATION

Flight Status: Arrived
Operator:
United Airlines
More flights by this operator :: More flights under this callsign
Pilot: Clay B. (17061)
Aircraft: BOEING 737-300
(B733)
More flights by this aircraft type
Origin: KSAN San Diego Intl-Lindbergh
United States
Destination: KPHX Phoenix Sky Harbor Intl
United States
More flights between these airports :: More routes between these airports
Route: +ZZOOO1 IPL J18 BZA HOGGZ HYDRR1
File this flight plan on PilotEdge
Remarks: PBN / A1B3B4B5D3D4 DOF / 171202 REG / N372SB EET / KZAB0027 PER / C RMK / TCAS SIMBRIEF
Altitude:
(Current/Filed)
35,000ft
Speed:
(Current/Filed)
430kts
Departed: 02-Dec-17 12:35 PM
Arrived: 02-Dec-17 01:40 PM
Distance/Time
Traveled:
264nm/1:05
Distance/Time
To Go:
Arrived

Flight Plot

Page will automatically refresh every two minutes.


Map Options




Map Legend


Flown Route
Filed Route
Departure Airport
Arrival Airport
Navaid (VOR, NDB)
Fix

Horizontal Profiles

Position Reports

Time Latitude Longitude Heading Altitude Ground
Speed
02-Dec-17 12:22 32.732348 -117.195936 307 18ft 0kts
02-Dec-17 12:23 32.732348 -117.195936 307 18ft 0kts
02-Dec-17 12:24 32.732348 -117.195936 307 18ft 0kts
02-Dec-17 12:25 32.732348 -117.195936 307 18ft 0kts
02-Dec-17 12:26 32.732348 -117.195936 307 18ft 0kts
02-Dec-17 12:27 32.732348 -117.195936 307 18ft 0kts
02-Dec-17 12:28 32.732348 -117.195936 307 18ft 0kts
02-Dec-17 12:29 32.732348 -117.195936 307 18ft 0kts
02-Dec-17 12:30 32.732348 -117.195936 307 18ft 0kts
02-Dec-17 12:31 32.732077 -117.195523 307 19ft 0kts
02-Dec-17 12:32 32.731843 -117.195186 313 20ft 0kts
02-Dec-17 12:33 32.732529 -117.194664 30 20ft 0kts
02-Dec-17 12:34 32.732529 -117.194664 30 20ft 0kts
02-Dec-17 12:35 32.733001 -117.194331 29 20ft 10kts
02-Dec-17 12:36 32.732225 -117.188442 105 18ft 26kts
02-Dec-17 12:37 32.730940 -117.183168 105 17ft 4kts
02-Dec-17 12:38 32.729660 -117.177882 105 20ft 20kts
02-Dec-17 12:39 32.730116 -117.175866 327 23ft 12kts
02-Dec-17 12:40 32.737403 -117.205947 285 868ft 164kts
02-Dec-17 12:41 32.752599 -117.267628 286 2782ft 225kts
02-Dec-17 12:42 32.720340 -117.320476 163 5012ft 266kts
02-Dec-17 12:43 32.659152 -117.269593 144 7922ft 277kts
02-Dec-17 12:44 32.626582 -117.191534 96 10317ft 302kts
02-Dec-17 12:45 32.617021 -117.083977 96 12264ft 343kts
02-Dec-17 12:46 32.606847 -116.970534 97 14782ft 358kts
02-Dec-17 12:47 32.614672 -116.850356 77 16923ft 382kts
02-Dec-17 12:48 32.635157 -116.725310 84 19069ft 396kts
02-Dec-17 12:49 32.647862 -116.593502 83 21065ft 411kts
02-Dec-17 12:50 32.661115 -116.457292 83 22843ft 425kts
02-Dec-17 12:51 32.674490 -116.318253 83 22994ft 426kts
02-Dec-17 12:52 32.687782 -116.178282 83 23660ft 431kts
02-Dec-17 12:53 32.701147 -116.035997 83 25308ft 442kts
02-Dec-17 12:54 32.714112 -115.892273 82 26828ft 453kts
02-Dec-17 12:55 32.727879 -115.742739 82 28307ft 461kts
02-Dec-17 12:56 32.741475 -115.593094 81 30251ft 453kts
02-Dec-17 12:57 32.750717 -115.445131 86 31851ft 450kts
02-Dec-17 12:58 32.753922 -115.298176 85 33161ft 448kts
02-Dec-17 12:59 32.757316 -115.151589 85 34517ft 440kts
02-Dec-17 13:00 32.760450 -115.009440 86 35000ft 423kts
02-Dec-17 13:01 32.763053 -114.871434 86 35034ft 420kts
02-Dec-17 13:02 32.765808 -114.732633 86 35063ft 422kts
02-Dec-17 13:03 32.768346 -114.593598 86 35054ft 421kts
02-Dec-17 13:04 32.770199 -114.453978 86 32714ft 431kts
02-Dec-17 13:05 32.772137 -114.312090 87 29536ft 432kts
02-Dec-17 13:06 32.773859 -114.170599 88 26668ft 422kts
02-Dec-17 13:07 32.778738 -114.030007 82 25016ft 443kts
02-Dec-17 13:08 32.795163 -113.884757 82 24983ft 445kts
02-Dec-17 13:09 32.808981 -113.758704 82 24982ft 445kts
02-Dec-17 13:10 32.857516 -113.630888 44 23880ft 431kts
02-Dec-17 13:11 32.934765 -113.529316 46 23694ft 423kts
02-Dec-17 13:12 33.011309 -113.426165 46 23388ft 421kts
02-Dec-17 13:13 33.088058 -113.322180 47 21917ft 412kts
02-Dec-17 13:14 33.165250 -113.217905 47 22001ft 421kts
02-Dec-17 13:15 33.242099 -113.113714 47 21970ft 419kts
02-Dec-17 13:16 33.276988 -112.991866 90 21798ft 414kts
02-Dec-17 13:17 33.279789 -112.857427 89 20450ft 414kts
02-Dec-17 13:18 33.315115 -112.728920 65 17402ft 406kts
02-Dec-17 13:19 33.360046 -112.610946 65 14869ft 372kts
02-Dec-17 13:20 33.415692 -112.519243 16 12841ft 335kts
02-Dec-17 13:21 33.483435 -112.560221 278 10802ft 284kts
02-Dec-17 13:22 33.485541 -112.653209 270 8829ft 281kts
02-Dec-17 13:23 33.434146 -112.701294 156 7972ft 308kts
02-Dec-17 13:24 33.413722 -112.620068 86 8018ft 251kts
02-Dec-17 13:25 33.406812 -112.536324 99 7758ft 255kts
02-Dec-17 13:26 33.404267 -112.492526 65 7231ft 243kts
02-Dec-17 13:27 33.404267 -112.492526 65 7231ft 243kts
02-Dec-17 13:28 33.404267 -112.492526 65 7231ft 243kts
02-Dec-17 13:29 33.415079 -112.462278 64 6858ft 242kts
02-Dec-17 13:30 33.428553 -112.385716 88 5991ft 237kts
02-Dec-17 13:31 33.428716 -112.307044 88 6021ft 239kts
02-Dec-17 13:32 33.432166 -112.228683 55 5992ft 233kts
02-Dec-17 13:33 33.476247 -112.222841 309 6016ft 226kts
02-Dec-17 13:34 33.518170 -112.292529 310 6020ft 227kts
02-Dec-17 13:35 33.535355 -112.357277 237 5016ft 247kts
02-Dec-17 13:36 33.483758 -112.375734 180 3449ft 250kts
02-Dec-17 13:37 33.413139 -112.365357 160 3042ft 229kts
02-Dec-17 13:38 33.374560 -112.330221 95 3014ft 225kts
02-Dec-17 13:39 33.382328 -112.262249 80 3033ft 194kts
02-Dec-17 13:40 33.403503 -112.207561 58 3038ft 181kts
02-Dec-17 13:41 33.427357 -112.159673 64 3020ft 160kts
02-Dec-17 13:42 33.429142 -112.111569 90 2531ft 142kts
02-Dec-17 13:43 33.428696 -112.068532 89 1824ft 135kts
02-Dec-17 13:44 33.428851 -112.026106 88 1146ft 137kts
02-Dec-17 13:45 33.429480 -112.010737 47 1121ft 4kts
02-Dec-17 13:46 33.429777 -112.009736 280 1123ft 13kts
02-Dec-17 13:47 33.430672 -112.015685 358 1119ft 22kts
02-Dec-17 13:48 33.432930 -112.011233 60 1126ft 16kts
02-Dec-17 13:49 33.433479 -112.009373 108 1126ft 2kts
02-Dec-17 13:50 33.433473 -112.009353 109 1126ft 0kts

Navigation Log

Ident Type
1. KSAN Airport
2. JETTI Fix
3. ZZOOO Fix
4. JORRJ Fix
5. GRIDR Fix
6. BLUZE Fix
7. IPL Navaid
8. IPL Navaid
9. HEEDS Fix
10. BZA Navaid
11. HOGGZ Fix
12. JUDTH Fix
13. RKDAM Fix
14. HYDRR Fix
15. GEELA Fix
16. PUNNT Fix
17. TEICH Fix
18. TESLE Fix
19. FALGO Fix
20. CAGOR Fix
21. FOWLE Fix
22. KPHX Airport